East Dorset, Vermont
Current Conditions -  °F | °C
As of 10:15 AM on Monday 24 Nov 2014 (Local Time) from KRUT Reporting Station
Overcast Overcast  
Wind Chill: 55°   Ceiling: 3600
Heat Index: 55°   Visibility: 10mi
Dew Point: 52°   Wind: 15mph
Humidity: 88%   Direction: 130°SE
Pressure: 29.57"   Gusts: 24mph
Location:  43.24°N, 73.01°W
Report Text: KRUT 241515Z 13013G21KT 10SM SCT030 OVC036 13/11 A2957 RMK AO1
Loading
Personal Weather Stations






























Interactive Weather Map New forecast layout! Learn more

10-Day Weather Forecast

Advertisements
Track Severe Weather on mobile